Leavenworth, IN (47137)

12:21 PM EST on February 12, 2016 (GMT -0500)
k9set Harrison county skywarn | | Change Station
CLOSE
Current Station
Personal Weather Station
Location: corydon, IN
Elevation: 649 ft
Nearby Weather Stations

Elev 649 ft 38.21 °N, 86.11 °W | Updated 1 second ago

Overcast
Overcast
29.8 °F
Feels Like 30 °F
N
1.0
Wind Variable Wind from WSW
Gusts 5.0 mph

Today
High -- | Low -- °F
--% Chance of Precip.
Yesterday
High -- | Low -- °F
Precip. -- in
Pressure 30.20 in
Visibility 10.0 miles
Clouds Scattered Clouds 1600 ft
Mostly Cloudy 7000 ft
Windchill 30 °F
Dew Point 23 °F
Humidity 75%
Rainfall 0.00 in
Snow Depth Not available.
7:39 AM 6:20 PM
Waxing Crescent, 22% visible
METAR KFTK 121658Z AUTO 26005KT 10SM SCT016 BKN070 M01/M06 A3017 RMK AO2 SLP227 T10081056
Pressure 30.20 in
Visibility 10.0 miles
Clouds Scattered Clouds 1600 ft
Mostly Cloudy 7000 ft
Windchill 30 °F
Dew Point 23 °F
Humidity 75%
Rainfall 0.00 in
Snow Depth Not available.
7:39 AM 6:20 PM
Waxing Crescent, 22% visible
METAR KFTK 121658Z AUTO 26005KT 10SM SCT016 BKN070 M01/M06 A3017 RMK AO2 SLP227 T10081056

10-Day Weather Forecast

Almanac

Astronomy

Feb. 12, 2016 Rise Set
Actual Time
Civil Twilight
Nautical Twilight
Astronomical Twilight
Moon
Length of Visible Light
Length of Day
Tomorrow will be .
, % of the Moon is Illuminated

Today's Extremes

State Highs State Lows

Community

WunderPhotos

Upload Photos

1,892,353 photos uploaded!

WunderBlog® & News

Nearby

Air Quality

  Air Quality AQ Index Pollutant
Not available.

Snow Depth

Station Depth Elevation

Earthquake Activity

City Distance Mag. Time & Date
Minimum magnitude displayed is 2.5.

Coastal Water Temperatures

Place Temperature

Stations

Nearby Weather Stations

Station Location Temp. Windchill Dew Point Humidity Wind Precip. Elev Updated Type
                   

Watches & Warnings

There are currently no watches in effect.